Time;durP1;ratioP1;P1;durP2;ratioP2;P2;SDS_P1;SDS_P2;PMS_P1;PMS_P2;Temp;Humidity;BMP_temperature;BMP_pressure;BME280_temperature;BME280_humidity;BME280_pressure;Samples;Min_cycle;Max_cycle;Signal;HPM_P1;HPM_P2
2021/01/19 00:02:15;;;;;;;7.32;4.20;;;;;;;;;;4964571;28;20085;-84
2021/01/19 00:04:42;;;;;;;8.57;4.40;;;;;;;;;;4962706;29;20507;-84
2021/01/19 00:07:08;;;;;;;7.05;3.97;;;;;;;;;;4955513;29;20051;-84
2021/01/19 00:09:34;;;;;;;8.77;4.00;;;;;;;;;;4963088;29;20102;-84
2021/01/19 00:12:00;;;;;;;8.98;4.28;;;;;;;;;;4964255;29;20062;-84
2021/01/19 00:14:26;;;;;;;9.95;4.55;;;;;;;;;;4963660;29;20102;-84
2021/01/19 00:16:52;;;;;;;5.82;3.67;;;;;;;;;;4963584;29;20063;-84
2021/01/19 00:19:18;;;;;;;7.35;4.00;;;;;;;;;;4963750;29;20078;-84
2021/01/19 00:21:44;;;;;;;7.78;3.58;;;;;;;;;;4951438;29;20179;-84
2021/01/19 00:24:11;;;;;;;7.50;3.92;;;;;;;;;;4944251;29;20055;-84
2021/01/19 00:26:39;;;;;;;9.85;4.15;;;;;;;;;;4944040;29;20047;-84
2021/01/19 00:29:05;;;;;;;7.93;4.22;;;;;;;;;;4944482;29;20055;-84
2021/01/19 00:31:31;;;;;;;10.85;5.10;;;;;;;;;;4944018;29;20102;-84
2021/01/19 00:33:57;;;;;;;9.10;4.93;;;;;;;;;;4943747;29;20075;-84
2021/01/19 00:36:22;;;;;;;7.63;4.00;;;;;;;;;;4943958;29;20090;-84
2021/01/19 00:38:49;;;;;;;7.88;4.32;;;;;;;;;;4943160;29;20154;-84
2021/01/19 00:41:15;;;;;;;10.30;5.43;;;;;;;;;;4944079;29;20051;-84
2021/01/19 00:43:41;;;;;;;7.32;4.38;;;;;;;;;;4953861;29;20054;-84
2021/01/19 00:46:07;;;;;;;7.88;4.22;;;;;;;;;;4962745;29;20428;-84
2021/01/19 00:48:33;;;;;;;7.38;4.47;;;;;;;;;;4962674;29;20059;-84
2021/01/19 00:50:59;;;;;;;7.53;4.32;;;;;;;;;;4962734;29;20484;-84
2021/01/19 00:53:25;;;;;;;7.18;4.10;;;;;;;;;;4962661;29;20059;-84
2021/01/19 00:55:52;;;;;;;8.93;4.90;;;;;;;;;;4963069;29;20071;-84
2021/01/19 00:58:18;;;;;;;9.40;4.40;;;;;;;;;;4961547;29;20066;-84
2021/01/19 01:00:44;;;;;;;8.93;4.72;;;;;;;;;;4962096;29;20051;-84
2021/01/19 01:03:11;;;;;;;7.15;4.90;;;;;;;;;;4961871;29;20126;-84
2021/01/19 01:05:37;;;;;;;8.48;5.15;;;;;;;;;;4962169;29;20079;-84
2021/01/19 01:08:03;;;;;;;9.30;4.75;;;;;;;;;;4961522;29;20055;-83
2021/01/19 01:10:29;;;;;;;12.15;4.90;;;;;;;;;;4961438;29;20051;-84
2021/01/19 01:12:56;;;;;;;9.20;5.68;;;;;;;;;;4961920;29;20649;-84
2021/01/19 01:15:30;;;;;;;10.00;4.95;;;;;;;;;;4961411;29;20048;-84
2021/01/19 01:17:56;;;;;;;8.70;4.43;;;;;;;;;;4962096;29;20472;-84
2021/01/19 01:20:22;;;;;;;9.18;5.25;;;;;;;;;;4961144;29;20059;-84
2021/01/19 01:22:48;;;;;;;9.50;5.43;;;;;;;;;;4960967;29;20500;-84
2021/01/19 01:25:15;;;;;;;8.00;5.07;;;;;;;;;;4960244;29;20086;-84
2021/01/19 01:27:44;;;;;;;11.40;6.13;;;;;;;;;;4959907;29;20058;-84
2021/01/19 01:30:12;;;;;;;15.85;5.50;;;;;;;;;;4959654;29;20047;-84
2021/01/19 01:32:39;;;;;;;9.90;5.20;;;;;;;;;;4960329;29;20094;-84
2021/01/19 01:35:06;;;;;;;8.45;4.78;;;;;;;;;;4959991;29;20492;-84
2021/01/19 01:37:32;;;;;;;11.13;5.30;;;;;;;;;;4960046;29;20055;-84
2021/01/19 01:39:58;;;;;;;8.38;4.97;;;;;;;;;;4959625;29;20054;-84
2021/01/19 01:42:25;;;;;;;9.45;6.10;;;;;;;;;;4959634;29;20214;-84
2021/01/19 01:44:52;;;;;;;8.43;5.05;;;;;;;;;;4959743;29;20059;-84
2021/01/19 01:47:22;;;;;;;8.82;5.55;;;;;;;;;;4959374;29;20051;-84
2021/01/19 01:49:49;;;;;;;10.63;5.60;;;;;;;;;;4942017;29;20047;-84
2021/01/19 01:52:15;;;;;;;12.80;6.18;;;;;;;;;;4943777;29;20081;-84
2021/01/19 01:54:41;;;;;;;9.80;5.80;;;;;;;;;;4943046;29;20052;-84
2021/01/19 01:57:07;;;;;;;8.98;5.75;;;;;;;;;;4942639;29;20420;-84
2021/01/19 01:59:33;;;;;;;10.30;5.43;;;;;;;;;;4948775;29;20047;-84
2021/01/19 02:02:08;;;;;;;11.00;6.93;;;;;;;;;;4960617;28;20051;-85
2021/01/19 02:04:34;;;;;;;10.75;5.85;;;;;;;;;;4956044;23;20039;-84
2021/01/19 02:07:05;;;;;;;10.85;6.20;;;;;;;;;;4947084;29;20051;-84
2021/01/19 02:09:34;;;;;;;13.13;6.40;;;;;;;;;;4945369;29;20044;-83
2021/01/19 02:12:04;;;;;;;10.73;6.10;;;;;;;;;;4937372;29;20373;-83
2021/01/19 02:14:35;;;;;;;14.23;6.88;;;;;;;;;;4938727;29;20072;-83
2021/01/19 02:17:07;;;;;;;19.80;6.70;;;;;;;;;;4937821;29;20429;-83
2021/01/19 02:20:27;;;;;;;12.38;6.07;;;;;;;;;;4938363;29;20059;-83
2021/01/19 02:23:21;;;;;;;12.00;6.85;;;;;;;;;;4938183;29;20056;-83
2021/01/19 02:26:26;;;;;;;12.00;6.07;;;;;;;;;;4937940;29;20048;-83
2021/01/19 02:28:53;;;;;;;9.50;5.40;;;;;;;;;;4864211;29;20048;-84
2021/01/19 02:31:29;;;;;;;11.23;6.20;;;;;;;;;;4939853;29;20039;-83
2021/01/19 02:34:06;;;;;;;12.05;7.40;;;;;;;;;;4938548;29;20044;-83
2021/01/19 02:36:37;;;;;;;14.07;7.15;;;;;;;;;;4938817;29;20048;-83
2021/01/19 02:39:04;;;;;;;11.65;7.57;;;;;;;;;;4937383;29;20223;-83
2021/01/19 02:41:31;;;;;;;11.98;6.32;;;;;;;;;;4920853;29;20477;-83
2021/01/19 02:44:01;;;;;;;11.13;6.55;;;;;;;;;;4920821;29;20043;-83
2021/01/19 02:46:28;;;;;;;14.25;7.70;;;;;;;;;;4938212;29;20047;-83
2021/01/19 02:48:55;;;;;;;12.05;7.43;;;;;;;;;;4922867;29;20043;-83
2021/01/19 02:51:22;;;;;;;12.93;7.32;;;;;;;;;;4939899;29;20071;-83
2021/01/19 02:53:49;;;;;;;12.15;6.80;;;;;;;;;;4938575;29;20047;-82
2021/01/19 02:56:21;;;;;;;12.68;7.53;;;;;;;;;;4940980;29;20079;-83
2021/01/19 02:58:56;;;;;;;11.00;6.90;;;;;;;;;;4938175;29;20054;-83
2021/01/19 03:01:26;;;;;;;11.07;6.75;;;;;;;;;;4938372;29;20040;-83
2021/01/19 03:03:53;;;;;;;10.07;6.57;;;;;;;;;;4921880;29;20103;-83
2021/01/19 03:06:21;;;;;;;10.00;6.85;;;;;;;;;;4938030;29;20416;-83
2021/01/19 03:08:49;;;;;;;13.02;6.22;;;;;;;;;;4920355;29;20103;-83
2021/01/19 03:11:16;;;;;;;9.95;6.00;;;;;;;;;;4920604;29;20548;-83
2021/01/19 03:13:43;;;;;;;12.77;6.63;;;;;;;;;;4920466;29;20079;-83
2021/01/19 03:16:11;;;;;;;12.48;6.15;;;;;;;;;;4904817;29;20051;-83
2021/01/19 03:18:38;;;;;;;11.07;6.38;;;;;;;;;;4938555;29;20092;-83
2021/01/19 03:21:06;;;;;;;11.20;5.68;;;;;;;;;;4922053;29;20063;-83
2021/01/19 03:23:35;;;;;;;10.15;6.35;;;;;;;;;;4938705;29;20050;-83
2021/01/19 03:26:02;;;;;;;10.48;6.00;;;;;;;;;;4937639;29;20507;-83
2021/01/19 03:28:28;;;;;;;10.57;6.00;;;;;;;;;;4921506;29;20052;-83
2021/01/19 03:30:55;;;;;;;10.93;5.72;;;;;;;;;;4938475;29;20366;-83
2021/01/19 03:33:21;;;;;;;10.13;5.68;;;;;;;;;;4936796;29;20138;-83
2021/01/19 03:35:48;;;;;;;10.25;5.88;;;;;;;;;;4938334;29;20044;-83
2021/01/19 03:38:14;;;;;;;11.25;6.25;;;;;;;;;;4921401;29;20495;-83
2021/01/19 03:40:41;;;;;;;10.15;5.30;;;;;;;;;;4943123;29;20052;-83
2021/01/19 03:43:08;;;;;;;11.05;6.32;;;;;;;;;;4938775;29;20507;-83
2021/01/19 03:45:34;;;;;;;10.57;6.15;;;;;;;;;;4939575;29;20047;-83
2021/01/19 03:48:00;;;;;;;8.70;5.15;;;;;;;;;;4938430;29;20059;-83
2021/01/19 03:50:28;;;;;;;11.68;6.68;;;;;;;;;;4922387;29;20048;-83
2021/01/19 03:52:54;;;;;;;10.85;6.00;;;;;;;;;;4907018;29;20047;-83
2021/01/19 03:55:20;;;;;;;10.88;6.10;;;;;;;;;;4940200;29;20059;-83
2021/01/19 03:57:47;;;;;;;10.77;6.00;;;;;;;;;;4922296;29;20052;-83
2021/01/19 04:00:16;;;;;;;11.45;6.65;;;;;;;;;;4938896;29;20055;-83
2021/01/19 04:02:42;;;;;;;14.20;6.78;;;;;;;;;;4937264;29;20110;-83
2021/01/19 04:05:09;;;;;;;11.65;6.35;;;;;;;;;;4938234;29;20368;-83
2021/01/19 04:07:38;;;;;;;13.43;8.07;;;;;;;;;;4920410;29;20099;-83
2021/01/19 04:10:05;;;;;;;12.13;6.43;;;;;;;;;;4936340;29;20111;-83
2021/01/19 04:12:31;;;;;;;12.27;6.18;;;;;;;;;;4937870;29;20051;-83
2021/01/19 04:14:58;;;;;;;16.65;7.40;;;;;;;;;;4907428;29;20107;-83
2021/01/19 04:17:24;;;;;;;12.63;6.65;;;;;;;;;;4925753;29;20047;-83
2021/01/19 04:19:51;;;;;;;12.32;6.95;;;;;;;;;;4941849;29;20115;-83
2021/01/19 04:22:17;;;;;;;12.02;6.32;;;;;;;;;;4942416;29;20149;-83
2021/01/19 04:24:43;;;;;;;14.57;7.18;;;;;;;;;;4941369;29;20048;-83
2021/01/19 04:27:09;;;;;;;11.70;6.78;;;;;;;;;;4924692;29;20459;-83
2021/01/19 04:29:35;;;;;;;15.93;7.00;;;;;;;;;;4924714;29;20044;-83
2021/01/19 04:32:01;;;;;;;14.43;7.05;;;;;;;;;;4941220;29;20051;-83
2021/01/19 04:34:28;;;;;;;11.88;7.68;;;;;;;;;;4942563;29;20046;-83
2021/01/19 04:36:54;;;;;;;13.65;7.85;;;;;;;;;;4925168;29;20052;-83
2021/01/19 04:39:21;;;;;;;14.75;7.70;;;;;;;;;;4925191;29;20055;-83
2021/01/19 04:41:48;;;;;;;12.98;7.47;;;;;;;;;;4941503;29;20062;-83
2021/01/19 04:44:15;;;;;;;14.27;7.43;;;;;;;;;;4939476;29;20507;-83
2021/01/19 04:46:43;;;;;;;14.45;7.50;;;;;;;;;;4940433;29;20361;-83
2021/01/19 04:49:10;;;;;;;14.35;8.90;;;;;;;;;;4942298;29;20051;-83
2021/01/19 04:51:38;;;;;;;14.85;8.20;;;;;;;;;;4941380;29;20514;-83
2021/01/19 04:54:07;;;;;;;14.98;7.78;;;;;;;;;;4941175;29;20047;-83
2021/01/19 04:56:37;;;;;;;12.90;7.80;;;;;;;;;;4942476;29;20051;-83
2021/01/19 04:59:11;;;;;;;14.55;8.60;;;;;;;;;;4941995;29;20082;-83
2021/01/19 05:02:00;;;;;;;12.50;7.53;;;;;;;;;;4908394;29;20054;-83
2021/01/19 05:04:45;;;;;;;14.13;7.82;;;;;;;;;;4926856;29;20345;-83
2021/01/19 05:07:30;;;;;;;16.17;7.97;;;;;;;;;;4941973;29;20099;-83
2021/01/19 05:10:07;;;;;;;12.82;7.18;;;;;;;;;;4940670;29;20052;-83
2021/01/19 05:12:38;;;;;;;16.05;9.20;;;;;;;;;;4940566;29;20047;-84
2021/01/19 05:15:07;;;;;;;13.13;7.22;;;;;;;;;;4942279;29;20382;-83
2021/01/19 05:17:33;;;;;;;16.40;7.75;;;;;;;;;;4923381;29;20048;-83
2021/01/19 05:20:01;;;;;;;13.20;7.63;;;;;;;;;;4891447;29;20071;-84
2021/01/19 05:22:28;;;;;;;14.70;7.60;;;;;;;;;;4923377;29;20106;-85
2021/01/19 05:24:54;;;;;;;14.40;7.85;;;;;;;;;;4904603;29;20044;-85
2021/01/19 05:27:20;;;;;;;13.20;7.93;;;;;;;;;;4922286;29;20075;-85
2021/01/19 05:29:46;;;;;;;14.20;8.10;;;;;;;;;;4940154;29;20362;-84
2021/01/19 05:32:12;;;;;;;15.13;8.32;;;;;;;;;;4940797;29;20052;-84
2021/01/19 05:34:38;;;;;;;14.07;8.45;;;;;;;;;;4940800;29;20135;-84
2021/01/19 05:37:04;;;;;;;13.05;7.53;;;;;;;;;;4940175;29;20047;-84
2021/01/19 05:39:31;;;;;;;15.15;8.25;;;;;;;;;;4939715;29;20066;-85
2021/01/19 05:42:01;;;;;;;13.90;7.63;;;;;;;;;;4940088;29;20091;-84
2021/01/19 05:44:29;;;;;;;12.60;8.02;;;;;;;;;;4939467;29;20127;-85
2021/01/19 05:47:02;;;;;;;15.73;7.75;;;;;;;;;;4939954;29;20044;-84
2021/01/19 05:49:31;;;;;;;14.50;7.63;;;;;;;;;;4941654;29;20047;-84
2021/01/19 05:52:00;;;;;;;15.98;7.80;;;;;;;;;;4924742;29;20047;-84
2021/01/19 05:54:28;;;;;;;14.77;8.57;;;;;;;;;;4925475;29;20040;-86
2021/01/19 05:57:06;;;;;;;17.55;8.35;;;;;;;;;;4942080;29;20051;-84
2021/01/19 05:59:37;;;;;;;14.95;8.70;;;;;;;;;;4942533;29;20047;-84
2021/01/19 06:02:05;;;;;;;13.05;7.75;;;;;;;;;;4943069;29;20408;-84
2021/01/19 06:04:36;;;;;;;13.48;7.70;;;;;;;;;;4946665;29;20043;-86
2021/01/19 06:07:03;;;;;;;13.50;7.30;;;;;;;;;;4948143;29;20047;-84
2021/01/19 06:09:29;;;;;;;15.65;8.68;;;;;;;;;;4944574;29;20043;-85
2021/01/19 06:11:56;;;;;;;14.93;7.85;;;;;;;;;;4922557;29;20059;-84
2021/01/19 06:14:24;;;;;;;13.32;8.40;;;;;;;;;;4940486;29;20043;-84
2021/01/19 06:16:51;;;;;;;13.95;7.57;;;;;;;;;;4923051;29;20051;-82
2021/01/19 06:19:27;;;;;;;12.65;6.78;;;;;;;;;;4922745;29;20079;-84
2021/01/19 06:21:53;;;;;;;13.98;7.60;;;;;;;;;;4940739;29;20111;-84
2021/01/19 06:24:20;;;;;;;11.52;7.18;;;;;;;;;;4939152;29;20500;-86
2021/01/19 06:26:46;;;;;;;14.23;7.45;;;;;;;;;;4904705;29;20048;-84
2021/01/19 06:29:24;;;;;;;12.20;6.78;;;;;;;;;;4917797;29;20048;-84
2021/01/19 06:31:50;;;;;;;14.52;7.10;;;;;;;;;;4920886;29;20048;-85
2021/01/19 06:34:24;;;;;;;15.15;7.30;;;;;;;;;;4910355;29;20044;-85
2021/01/19 06:36:51;;;;;;;12.80;7.22;;;;;;;;;;4920264;29;20151;-84
2021/01/19 06:39:26;;;;;;;12.25;6.75;;;;;;;;;;4904830;29;20051;-85
2021/01/19 06:42:02;;;;;;;9.82;5.65;;;;;;;;;;4927758;29;20511;-84
2021/01/19 06:44:36;;;;;;;13.20;7.28;;;;;;;;;;4922771;29;20056;-84
2021/01/19 06:47:03;;;;;;;12.48;7.22;;;;;;;;;;4922693;29;20069;-84
2021/01/19 06:49:32;;;;;;;10.32;6.75;;;;;;;;;;4897941;29;20124;-84
2021/01/19 06:52:06;;;;;;;11.85;6.75;;;;;;;;;;4903834;29;20048;-84
2021/01/19 06:54:41;;;;;;;12.70;6.85;;;;;;;;;;4935746;29;20047;-85
2021/01/19 06:57:32;;;;;;;13.27;6.97;;;;;;;;;;4922113;29;20425;-85
2021/01/19 07:00:09;;;;;;;10.02;6.03;;;;;;;;;;4905684;29;20484;-85
2021/01/19 07:02:36;;;;;;;11.77;6.65;;;;;;;;;;4921151;29;20051;-84
2021/01/19 07:05:13;;;;;;;10.27;6.35;;;;;;;;;;4937755;29;20453;-84
2021/01/19 07:07:40;;;;;;;;;;;;;;;;;;4936785;29;20044;-84
2021/01/19 07:10:12;;;;;;;11.88;6.25;;;;;;;;;;4937509;29;20014;-85
2021/01/19 07:12:54;;;;;;;12.98;6.97;;;;;;;;;;4943371;29;20051;-83
2021/01/19 07:15:22;;;;;;;15.10;8.27;;;;;;;;;;4940086;29;20044;-84
2021/01/19 07:18:17;;;;;;;11.52;7.40;;;;;;;;;;4937523;29;20503;-84
2021/01/19 07:21:00;;;;;;;15.45;8.23;;;;;;;;;;4924203;29;20048;-83
2021/01/19 07:23:35;;;;;;;14.77;8.20;;;;;;;;;;4925405;29;20040;-85
2021/01/19 07:26:01;;;;;;;15.50;8.60;;;;;;;;;;4901841;29;20052;-85
2021/01/19 07:28:27;;;;;;;14.07;7.60;;;;;;;;;;4922228;29;20044;-86
2021/01/19 07:30:54;;;;;;;13.90;8.00;;;;;;;;;;4926253;29;20047;-83
2021/01/19 07:33:21;;;;;;;16.17;8.32;;;;;;;;;;4940057;29;20051;-85
2021/01/19 07:35:47;;;;;;;15.43;8.88;;;;;;;;;;4927849;29;20385;-84
2021/01/19 07:38:22;;;;;;;15.45;7.93;;;;;;;;;;4923700;29;20052;-84
2021/01/19 07:40:48;;;;;;;13.55;7.70;;;;;;;;;;4926480;29;20040;-85
2021/01/19 07:43:14;;;;;;;12.65;7.50;;;;;;;;;;4930671;29;20725;-84
2021/01/19 07:45:49;;;;;;;12.80;7.72;;;;;;;;;;4922937;29;20059;-84
2021/01/19 07:48:16;;;;;;;12.25;7.15;;;;;;;;;;4923224;29;20400;-84
2021/01/19 07:50:45;;;;;;;13.75;7.60;;;;;;;;;;4928992;29;20035;-84
2021/01/19 07:53:11;;;;;;;13.45;7.38;;;;;;;;;;4926728;29;20149;-84
2021/01/19 07:55:44;;;;;;;12.43;6.65;;;;;;;;;;4900513;29;20047;-85
2021/01/19 07:58:15;;;;;;;13.85;7.00;;;;;;;;;;4924481;29;20048;-84
2021/01/19 08:00:43;;;;;;;11.07;7.15;;;;;;;;;;4929800;29;20118;-85
2021/01/19 08:03:10;;;;;;;11.77;7.03;;;;;;;;;;4923434;29;20103;-87
2021/01/19 08:05:37;;;;;;;11.27;6.53;;;;;;;;;;4942847;29;20051;-85
2021/01/19 08:08:13;;;;;;;11.93;6.68;;;;;;;;;;4927316;29;20058;-85
2021/01/19 08:10:39;;;;;;;10.43;6.43;;;;;;;;;;4939940;29;20119;-85
2021/01/19 08:13:16;;;;;;;14.70;7.43;;;;;;;;;;4922429;29;20449;-85
2021/01/19 08:15:42;;;;;;;10.15;6.45;;;;;;;;;;4930601;29;20057;-85
2021/01/19 08:18:16;;;;;;;10.20;6.28;;;;;;;;;;4932249;29;20058;-85
2021/01/19 08:20:45;;;;;;;14.30;6.90;;;;;;;;;;4928484;29;20059;-85
2021/01/19 08:23:13;;;;;;;11.68;7.28;;;;;;;;;;4939011;29;20118;-85
2021/01/19 08:25:39;;;;;;;13.02;7.63;;;;;;;;;;4925324;29;20430;-85
2021/01/19 08:28:06;;;;;;;14.02;7.13;;;;;;;;;;4909926;29;20051;-85
2021/01/19 08:30:32;;;;;;;12.75;7.75;;;;;;;;;;4923820;29;20467;-85
2021/01/19 08:32:59;;;;;;;10.15;6.93;;;;;;;;;;4942176;29;20051;-85
2021/01/19 08:35:28;;;;;;;12.05;7.75;;;;;;;;;;4941077;29;20044;-85
2021/01/19 08:37:56;;;;;;;11.20;6.55;;;;;;;;;;4942771;29;20107;-85
2021/01/19 08:40:25;;;;;;;11.45;6.32;;;;;;;;;;4932105;29;20099;-85
2021/01/19 08:42:51;;;;;;;13.18;7.95;;;;;;;;;;4923724;29;20120;-85
2021/01/19 08:45:21;;;;;;;9.68;6.72;;;;;;;;;;4922637;29;20083;-85
2021/01/19 08:47:48;;;;;;;12.23;6.80;;;;;;;;;;4925061;29;20050;-85
2021/01/19 08:50:15;;;;;;;11.27;6.88;;;;;;;;;;4932264;29;20054;-84
2021/01/19 08:52:42;;;;;;;12.27;6.75;;;;;;;;;;4922572;29;20044;-85
2021/01/19 08:55:16;;;;;;;12.98;7.97;;;;;;;;;;4907283;29;20055;-84
2021/01/19 08:57:43;;;;;;;14.02;7.45;;;;;;;;;;4923662;29;20052;-86
2021/01/19 09:00:11;;;;;;;13.93;7.88;;;;;;;;;;4933460;29;20044;-85
2021/01/19 09:02:37;;;;;;;10.90;7.50;;;;;;;;;;4926454;29;20425;-86
2021/01/19 09:05:05;;;;;;;11.80;7.05;;;;;;;;;;4929028;29;20067;-86
2021/01/19 09:07:31;;;;;;;11.23;6.32;;;;;;;;;;4907424;29;20040;-86
2021/01/19 09:09:58;;;;;;;10.30;6.85;;;;;;;;;;4914309;29;20044;-85
2021/01/19 09:12:25;;;;;;;10.18;6.60;;;;;;;;;;4917360;29;20251;-85
2021/01/19 09:14:52;;;;;;;9.10;5.95;;;;;;;;;;4907322;29;20404;-84
2021/01/19 09:17:25;;;;;;;10.57;6.28;;;;;;;;;;4923176;29;20067;-87
2021/01/19 09:20:08;;;;;;;10.85;6.93;;;;;;;;;;4930337;29;20040;-85
2021/01/19 09:22:34;;;;;;;10.13;6.03;;;;;;;;;;4913035;29;20251;-86
2021/01/19 09:25:00;;;;;;;11.63;5.93;;;;;;;;;;4927036;29;20048;-85
2021/01/19 09:27:27;;;;;;;8.75;5.13;;;;;;;;;;4934787;29;20039;-85
2021/01/19 09:30:04;;;;;;;11.02;6.45;;;;;;;;;;4898101;29;20401;-85
2021/01/19 09:32:30;;;;;;;9.35;6.47;;;;;;;;;;4928140;29;20040;-84
2021/01/19 09:34:58;;;;;;;11.10;6.68;;;;;;;;;;4906403;29;20096;-86
2021/01/19 09:37:24;;;;;;;8.77;5.85;;;;;;;;;;4892240;29;20044;-84
2021/01/19 09:39:50;;;;;;;10.75;6.30;;;;;;;;;;4922672;29;20044;-84
2021/01/19 09:42:19;;;;;;;10.18;6.53;;;;;;;;;;4905581;29;20052;-84
2021/01/19 09:44:46;;;;;;;9.05;5.43;;;;;;;;;;4907758;29;20412;-84
2021/01/19 09:47:13;;;;;;;8.23;5.40;;;;;;;;;;4906318;29;20071;-84
2021/01/19 09:49:40;;;;;;;10.48;5.82;;;;;;;;;;4921869;29;20056;-85
2021/01/19 09:52:07;;;;;;;7.32;4.75;;;;;;;;;;4931083;29;20048;-85
2021/01/19 09:54:33;;;;;;;7.72;5.05;;;;;;;;;;4941452;29;20441;-85
2021/01/19 09:57:00;;;;;;;11.10;5.45;;;;;;;;;;4933352;29;20400;-85
2021/01/19 09:59:26;;;;;;;8.18;5.60;;;;;;;;;;4920534;29;20096;-85
2021/01/19 10:01:55;;;;;;;9.32;5.78;;;;;;;;;;4940431;29;20046;-85
2021/01/19 10:04:21;;;;;;;9.32;5.32;;;;;;;;;;4926423;29;20040;-85
2021/01/19 10:06:47;;;;;;;7.47;5.10;;;;;;;;;;4931634;29;20040;-85
2021/01/19 10:09:21;;;;;;;8.80;6.00;;;;;;;;;;4946490;29;20043;-85
2021/01/19 10:11:56;;;;;;;6.85;4.68;;;;;;;;;;4947350;29;20043;-84
2021/01/19 10:14:22;;;;;;;11.55;6.32;;;;;;;;;;4942135;29;20543;-84
2021/01/19 10:16:49;;;;;;;8.20;5.53;;;;;;;;;;4922232;29;20065;-85
2021/01/19 10:19:22;;;;;;;11.07;6.25;;;;;;;;;;4938143;29;20063;-84
2021/01/19 10:21:52;;;;;;;7.57;4.80;;;;;;;;;;4923240;29;20044;-90
2021/01/19 10:24:19;;;;;;;9.02;5.25;;;;;;;;;;4939489;29;20052;-86
2021/01/19 10:26:59;;;;;;;7.63;4.15;;;;;;;;;;4939359;29;20108;-84
2021/01/19 10:29:26;;;;;;;5.88;3.90;;;;;;;;;;4932020;29;20044;-84
2021/01/19 10:31:55;;;;;;;6.80;4.38;;;;;;;;;;4921759;29;20409;-84
2021/01/19 10:34:22;;;;;;;5.07;3.30;;;;;;;;;;4927662;29;20503;-84
2021/01/19 10:36:52;;;;;;;5.70;3.65;;;;;;;;;;4907513;29;20043;-84
2021/01/19 10:39:21;;;;;;;6.15;3.22;;;;;;;;;;4938948;29;20051;-83
2021/01/19 10:41:47;;;;;;;5.05;3.00;;;;;;;;;;4939456;29;20040;-83
2021/01/19 10:44:14;;;;;;;6.85;3.20;;;;;;;;;;4940031;29;20044;-84
2021/01/19 10:46:40;;;;;;;6.03;3.50;;;;;;;;;;4941864;29;20055;-87
2021/01/19 10:49:07;;;;;;;4.63;3.20;;;;;;;;;;4940949;29;20131;-84
2021/01/19 10:51:35;;;;;;;5.53;3.13;;;;;;;;;;4940672;29;20044;-84
2021/01/19 10:54:12;;;;;;;8.18;4.00;;;;;;;;;;4923682;29;20044;-84
2021/01/19 10:56:40;;;;;;;7.85;3.75;;;;;;;;;;4937792;29;20388;-84
2021/01/19 10:59:07;;;;;;;5.55;2.92;;;;;;;;;;4938031;29;20052;-84
2021/01/19 11:01:33;;;;;;;4.25;2.53;;;;;;;;;;4923250;29;20134;-84
2021/01/19 11:04:00;;;;;;;4.80;2.80;;;;;;;;;;4941449;29;20047;-83
2021/01/19 11:06:31;;;;;;;6.18;2.15;;;;;;;;;;4921235;29;20047;-83
2021/01/19 11:08:58;;;;;;;4.18;2.17;;;;;;;;;;4937871;29;20052;-83
2021/01/19 11:11:26;;;;;;;4.15;2.58;;;;;;;;;;4938902;29;20115;-84
2021/01/19 11:13:53;;;;;;;4.85;2.45;;;;;;;;;;4920773;29;20392;-84
2021/01/19 11:16:19;;;;;;;6.63;2.80;;;;;;;;;;4937265;29;20044;-84
2021/01/19 11:18:46;;;;;;;3.63;2.55;;;;;;;;;;4905340;29;20052;-84
2021/01/19 11:21:12;;;;;;;5.88;2.63;;;;;;;;;;4933309;29;20477;-84
2021/01/19 11:23:38;;;;;;;4.57;2.35;;;;;;;;;;4939998;29;20594;-83
2021/01/19 11:26:10;;;;;;;3.92;2.35;;;;;;;;;;4936511;29;20048;-85
2021/01/19 11:28:40;;;;;;;5.03;2.75;;;;;;;;;;4917832;29;20044;-87
2021/01/19 11:31:10;;;;;;;12.38;4.82;;;;;;;;;;4942808;29;20055;-86
2021/01/19 11:33:37;;;;;;;3.85;2.00;;;;;;;;;;4946663;29;20161;-86
2021/01/19 11:36:04;;;;;;;5.90;2.67;;;;;;;;;;4930787;29;20453;-85
2021/01/19 11:38:30;;;;;;;4.70;2.58;;;;;;;;;;4896434;29;20076;-85
2021/01/19 11:40:56;;;;;;;4.55;2.50;;;;;;;;;;4896587;29;20047;-85
2021/01/19 11:43:23;;;;;;;5.13;2.63;;;;;;;;;;4916209;29;20100;-84
2021/01/19 11:45:49;;;;;;;5.47;2.80;;;;;;;;;;4913279;29;20048;-85
2021/01/19 11:48:16;;;;;;;5.10;2.80;;;;;;;;;;4910225;29;20080;-86
2021/01/19 11:50:42;;;;;;;6.15;2.92;;;;;;;;;;4915614;29;20051;-84
2021/01/19 11:53:08;;;;;;;3.75;2.10;;;;;;;;;;4929839;29;20050;-84
2021/01/19 11:55:34;;;;;;;3.63;2.28;;;;;;;;;;4936858;29;20458;-84
2021/01/19 11:58:02;;;;;;;2.83;1.80;;;;;;;;;;4919662;29;20044;-82
2021/01/19 12:00:30;;;;;;;3.60;2.00;;;;;;;;;;4909314;29;20535;-82
2021/01/19 12:02:56;;;;;;;4.03;2.30;;;;;;;;;;4940318;29;20058;-83
2021/01/19 12:05:22;;;;;;;3.90;2.15;;;;;;;;;;4941183;29;20392;-83
2021/01/19 12:07:48;;;;;;;4.43;2.00;;;;;;;;;;4941133;29;20095;-83
2021/01/19 12:10:14;;;;;;;3.78;2.08;;;;;;;;;;4933535;29;20051;-83
2021/01/19 12:12:40;;;;;;;3.10;1.70;;;;;;;;;;4913794;29;20504;-84
2021/01/19 12:15:07;;;;;;;3.80;2.20;;;;;;;;;;4905560;29;20055;-83
2021/01/19 12:17:34;;;;;;;4.47;1.80;;;;;;;;;;4922561;29;20051;-84
2021/01/19 12:20:00;;;;;;;4.13;2.10;;;;;;;;;;4923216;29;20040;-83
2021/01/19 12:22:26;;;;;;;3.65;2.22;;;;;;;;;;4905886;29;20469;-84
2021/01/19 12:24:52;;;;;;;3.60;2.00;;;;;;;;;;4906920;29;20052;-84
2021/01/19 12:27:18;;;;;;;5.30;2.10;;;;;;;;;;4920157;29;20456;-84
2021/01/19 12:29:44;;;;;;;4.60;2.25;;;;;;;;;;4907032;29;20048;-84
2021/01/19 12:32:11;;;;;;;4.57;2.60;;;;;;;;;;4935292;29;20051;-84
2021/01/19 12:34:39;;;;;;;4.72;2.95;;;;;;;;;;4938563;29;20055;-85
2021/01/19 12:37:06;;;;;;;4.57;2.30;;;;;;;;;;4914104;29;20048;-84
2021/01/19 12:39:32;;;;;;;3.70;1.70;;;;;;;;;;4938018;29;20076;-85
2021/01/19 12:41:58;;;;;;;4.35;2.30;;;;;;;;;;4941519;29;20040;-85
2021/01/19 12:44:24;;;;;;;4.53;2.80;;;;;;;;;;4944667;29;20051;-84
2021/01/19 12:46:51;;;;;;;5.13;3.40;;;;;;;;;;4940872;29;20050;-85
2021/01/19 12:49:17;;;;;;;4.15;2.10;;;;;;;;;;4941083;29;20047;-85
2021/01/19 12:51:44;;;;;;;4.38;2.20;;;;;;;;;;4924434;29;20511;-85
2021/01/19 12:54:10;;;;;;;3.33;2.10;;;;;;;;;;4927971;29;20051;-84
2021/01/19 12:56:37;;;;;;;5.22;2.55;;;;;;;;;;4926050;29;20047;-84
2021/01/19 12:59:04;;;;;;;4.07;1.90;;;;;;;;;;4927906;29;20154;-85
2021/01/19 13:01:30;;;;;;;5.07;2.75;;;;;;;;;;4943212;29;20111;-85
2021/01/19 13:03:56;;;;;;;5.28;2.40;;;;;;;;;;4942766;29;20047;-85
2021/01/19 13:06:22;;;;;;;6.80;3.20;;;;;;;;;;4926195;29;20043;-85
2021/01/19 13:08:49;;;;;;;6.70;3.30;;;;;;;;;;4926389;29;20055;-84
2021/01/19 13:11:15;;;;;;;3.25;1.83;;;;;;;;;;4909056;29;20052;-84
2021/01/19 13:13:41;;;;;;;4.18;2.30;;;;;;;;;;4942125;29;20135;-84
2021/01/19 13:16:07;;;;;;;6.43;2.42;;;;;;;;;;4908849;29;20051;-83
2021/01/19 13:18:33;;;;;;;3.92;1.90;;;;;;;;;;4941856;29;20179;-83
2021/01/19 13:21:01;;;;;;;3.20;2.08;;;;;;;;;;4942013;29;20106;-84
2021/01/19 13:23:27;;;;;;;3.13;2.05;;;;;;;;;;4926055;29;20043;-83
2021/01/19 13:25:55;;;;;;;3.63;2.13;;;;;;;;;;4925820;29;20111;-83
2021/01/19 13:28:22;;;;;;;3.28;1.90;;;;;;;;;;4909196;29;20487;-85
2021/01/19 13:30:48;;;;;;;4.07;2.13;;;;;;;;;;4925559;29;20103;-85
2021/01/19 13:33:15;;;;;;;4.78;2.38;;;;;;;;;;4925831;29;20047;-85
2021/01/19 13:35:44;;;;;;;3.97;2.22;;;;;;;;;;4925203;29;20040;-84
2021/01/19 13:38:11;;;;;;;3.42;1.92;;;;;;;;;;4942959;29;20050;-85
2021/01/19 13:40:38;;;;;;;4.78;2.30;;;;;;;;;;4943735;29;20075;-85
2021/01/19 13:43:10;;;;;;;5.75;2.88;;;;;;;;;;4926431;29;20043;-85
2021/01/19 13:45:36;;;;;;;7.55;3.28;;;;;;;;;;4910273;29;20047;-84
2021/01/19 13:48:02;;;;;;;3.83;2.10;;;;;;;;;;4944262;29;20047;-85
2021/01/19 13:50:39;;;;;;;3.88;2.35;;;;;;;;;;4928586;29;20047;-86
2021/01/19 13:53:06;;;;;;;3.08;2.22;;;;;;;;;;4929071;29;20040;-85
2021/01/19 13:55:33;;;;;;;4.38;2.30;;;;;;;;;;4929013;29;20047;-85
2021/01/19 13:57:59;;;;;;;4.20;2.47;;;;;;;;;;4945574;29;20072;-85
2021/01/19 14:00:26;;;;;;;3.53;1.90;;;;;;;;;;4931746;29;20047;-84
2021/01/19 14:02:53;;;;;;;3.78;2.38;;;;;;;;;;4945419;29;20396;-86
2021/01/19 14:05:19;;;;;;;4.85;2.47;;;;;;;;;;4938258;29;20035;-84
2021/01/19 14:07:46;;;;;;;4.38;2.38;;;;;;;;;;4958704;28;20048;-83
2021/01/19 14:10:12;;;;;;;5.65;3.47;;;;;;;;;;4941345;29;20107;-84
2021/01/19 14:12:38;;;;;;;5.55;2.95;;;;;;;;;;4936595;29;20047;-84
2021/01/19 14:15:06;;;;;;;5.78;2.80;;;;;;;;;;4956221;28;20063;-86
2021/01/19 14:17:33;;;;;;;4.57;2.85;;;;;;;;;;4943441;28;20036;-85
2021/01/19 14:19:59;;;;;;;4.88;2.45;;;;;;;;;;4959539;28;20063;-86
2021/01/19 14:22:29;;;;;;;5.30;3.05;;;;;;;;;;4943148;29;20527;-85
2021/01/19 14:24:56;;;;;;;5.82;3.80;;;;;;;;;;4958216;29;20032;-84
2021/01/19 14:27:22;;;;;;;10.20;5.75;;;;;;;;;;4942110;29;20115;-87
2021/01/19 14:29:49;;;;;;;4.20;2.53;;;;;;;;;;4938859;29;20039;-84
2021/01/19 14:32:15;;;;;;;6.03;3.08;;;;;;;;;;4958210;29;20047;-83
2021/01/19 14:34:44;;;;;;;5.88;3.50;;;;;;;;;;4938702;29;20052;-84
2021/01/19 14:37:11;;;;;;;4.60;2.80;;;;;;;;;;4922343;29;20050;-83
2021/01/19 14:39:37;;;;;;;7.43;4.57;;;;;;;;;;4921001;29;20473;-84
2021/01/19 14:42:03;;;;;;;6.03;3.97;;;;;;;;;;4921344;29;20044;-84
2021/01/19 14:44:29;;;;;;;6.47;3.00;;;;;;;;;;4921272;29;20054;-84